Time;durP1;ratioP1;P1;durP2;ratioP2;P2;SDS_P1;SDS_P2;PMS_P1;PMS_P2;Temp;Humidity;BMP_temperature;BMP_pressure;BME280_temperature;BME280_humidity;BME280_pressure;Samples;Min_cycle;Max_cycle;Signal;HPM_P1;HPM_P2
2024/03/05 00:00:47;;;;;;;36.27;20.37;;;9.30;99.90;;;;;;5031482;28;20479;-74
2024/03/05 00:03:34;;;;;;;40.90;21.47;;;9.40;99.90;;;;;;5032548;28;20809;-73
2024/03/05 00:06:20;;;;;;;45.20;22.90;;;9.40;99.90;;;;;;5032392;28;20462;-74
2024/03/05 00:09:06;;;;;;;42.00;22.07;;;9.40;99.90;;;;;;5024450;28;20483;-74
2024/03/05 00:11:51;;;;;;;41.00;22.50;;;9.30;99.90;;;;;;5030981;28;20505;-73
2024/03/05 00:14:37;;;;;;;40.93;21.77;;;9.30;99.90;;;;;;5032413;28;20482;-73
2024/03/05 00:17:24;;;;;;;40.97;21.93;;;9.20;99.90;;;;;;5030175;28;20454;-73
2024/03/05 00:20:18;;;;;;;42.73;23.47;;;9.20;99.90;;;;;;5030435;28;21049;-74
2024/03/05 00:23:04;;;;;;;45.23;22.70;;;9.30;99.90;;;;;;5029017;28;20545;-74
2024/03/05 00:25:49;;;;;;;43.23;23.33;;;9.20;99.90;;;;;;5033208;28;20446;-74
2024/03/05 00:28:36;;;;;;;41.10;21.73;;;9.10;99.90;;;;;;5027847;28;20472;-74
2024/03/05 00:31:22;;;;;;;44.23;22.97;;;9.10;99.90;;;;;;5023837;28;20489;-74
2024/03/05 00:34:08;;;;;;;44.20;22.03;;;9.00;99.90;;;;;;5029160;28;20434;-74
2024/03/05 00:36:55;;;;;;;45.53;24.80;;;9.00;99.90;;;;;;5029520;28;20986;-74
2024/03/05 00:39:41;;;;;;;44.17;23.87;;;9.00;99.90;;;;;;5032485;28;20474;-74
2024/03/05 00:42:26;;;;;;;46.47;24.23;;;9.00;99.90;;;;;;5029796;28;20451;-73
2024/03/05 00:45:12;;;;;;;43.83;22.73;;;9.00;99.90;;;;;;5026807;28;20525;-73
2024/03/05 00:47:57;;;;;;;43.77;23.50;;;9.00;99.90;;;;;;5028147;28;20490;-73
2024/03/05 00:50:43;;;;;;;43.93;23.23;;;9.00;99.90;;;;;;5031290;28;20455;-74
2024/03/05 00:53:30;;;;;;;45.33;22.63;;;9.00;99.90;;;;;;5032679;28;20582;-73
2024/03/05 00:56:16;;;;;;;45.33;24.53;;;9.00;99.90;;;;;;5029560;28;20456;-73
2024/03/05 00:59:03;;;;;;;42.93;23.37;;;9.00;99.90;;;;;;5031309;28;20966;-73
2024/03/05 01:01:48;;;;;;;36.40;20.93;;;9.10;99.90;;;;;;5031114;28;20471;-73
2024/03/05 01:04:34;;;;;;;51.77;24.83;;;9.10;99.90;;;;;;5028920;28;20455;-73
2024/03/05 01:07:20;;;;;;;42.80;21.60;;;9.10;99.90;;;;;;5029811;28;20457;-74
2024/03/05 01:10:08;;;;;;;49.83;21.57;;;9.10;99.90;;;;;;5027540;28;20507;-73
2024/03/05 01:12:55;;;;;;;36.07;21.50;;;9.10;99.90;;;;;;5034699;28;20627;-73
2024/03/05 01:15:41;;;;;;;44.90;21.43;;;9.10;99.90;;;;;;5033059;28;20460;-73
2024/03/05 01:18:27;;;;;;;39.67;21.20;;;9.10;99.90;;;;;;5024867;28;20468;-74
2024/03/05 01:21:13;;;;;;;41.60;23.07;;;9.20;99.90;;;;;;5028574;28;20466;-74
2024/03/05 01:23:58;;;;;;;38.70;21.03;;;9.10;99.90;;;;;;5033219;28;20920;-73
2024/03/05 01:26:45;;;;;;;40.33;21.73;;;9.20;99.90;;;;;;5032773;28;20458;-73
2024/03/05 01:29:31;;;;;;;43.20;22.40;;;9.10;99.90;;;;;;5036071;28;20621;-73
2024/03/05 01:32:16;;;;;;;45.07;23.77;;;9.10;99.90;;;;;;5031260;28;21128;-73
2024/03/05 01:35:04;;;;;;;42.47;24.40;;;9.10;99.90;;;;;;5032245;28;20442;-73
2024/03/05 01:37:51;;;;;;;42.83;21.80;;;9.10;99.90;;;;;;5028732;28;20490;-74
2024/03/05 01:40:36;;;;;;;41.03;21.00;;;9.10;99.90;;;;;;5030619;28;20468;-73
2024/03/05 01:43:23;;;;;;;41.70;21.83;;;9.10;99.90;;;;;;5029980;28;20577;-74
2024/03/05 01:46:13;;;;;;;42.83;21.50;;;9.10;99.90;;;;;;5030038;28;20459;-73
2024/03/05 01:48:59;;;;;;;38.77;20.90;;;9.20;99.90;;;;;;5025100;28;20974;-74
2024/03/05 01:51:45;;;;;;;40.47;21.40;;;9.20;99.90;;;;;;5026728;28;22506;-73
2024/03/05 01:54:31;;;;;;;43.10;23.07;;;9.20;99.90;;;;;;5029323;28;20478;-73
2024/03/05 01:57:17;;;;;;;42.47;22.47;;;9.20;99.90;;;;;;5028866;28;20449;-73
2024/03/05 02:00:07;;;;;;;39.43;21.70;;;9.10;99.90;;;;;;5023871;28;20475;-73
2024/03/05 02:02:52;;;;;;;38.17;22.20;;;9.00;99.90;;;;;;5025988;28;20513;-74
2024/03/05 02:05:39;;;;;;;45.93;22.83;;;9.10;99.90;;;;;;5025333;28;20460;-74
2024/03/05 02:08:25;;;;;;;42.53;22.13;;;9.10;99.90;;;;;;5026006;28;20430;-73
2024/03/05 02:11:12;;;;;;;40.17;20.90;;;9.10;99.90;;;;;;5025865;28;20506;-74
2024/03/05 02:13:58;;;;;;;45.93;21.43;;;9.10;99.90;;;;;;5025961;28;20456;-74
2024/03/05 02:16:48;;;;;;;46.40;22.60;;;9.00;99.90;;;;;;5028252;28;20452;-73
2024/03/05 02:19:33;;;;;;;46.50;21.37;;;9.00;99.90;;;;;;5029794;28;20472;-73
2024/03/05 02:22:21;;;;;;;41.20;23.53;;;8.90;99.90;;;;;;5025321;28;20865;-73
2024/03/05 02:25:08;;;;;;;39.77;21.20;;;8.90;99.90;;;;;;5031199;28;20450;-73
2024/03/05 02:27:54;;;;;;;46.20;23.87;;;9.00;99.90;;;;;;5031511;28;20449;-73
2024/03/05 02:30:40;;;;;;;45.60;22.93;;;9.00;99.90;;;;;;5027815;28;20818;-73
2024/03/05 02:33:27;;;;;;;49.03;24.07;;;9.10;99.90;;;;;;5028441;28;20483;-73
2024/03/05 02:36:12;;;;;;;38.23;20.90;;;9.10;99.90;;;;;;5031491;28;20454;-74
2024/03/05 02:38:59;;;;;;;40.27;21.57;;;9.00;99.90;;;;;;5028439;28;21628;-73
2024/03/05 02:41:45;;;;;;;38.40;21.20;;;9.00;99.90;;;;;;5029228;28;20451;-73
2024/03/05 02:44:31;;;;;;;39.30;20.50;;;9.00;99.90;;;;;;5030773;28;20455;-73
2024/03/05 02:47:17;;;;;;;38.73;19.87;;;8.90;99.90;;;;;;5030367;28;20459;-73
2024/03/05 02:50:04;;;;;;;42.90;22.47;;;8.90;99.90;;;;;;5028247;28;20475;-73
2024/03/05 02:52:49;;;;;;;46.90;24.40;;;8.90;99.90;;;;;;5028335;28;20479;-74
2024/03/05 02:55:38;;;;;;;41.70;20.87;;;8.90;99.90;;;;;;5025321;28;20543;-73
2024/03/05 02:58:25;;;;;;;47.33;25.37;;;8.90;99.90;;;;;;5028206;28;20455;-73
2024/03/05 03:01:11;;;;;;;49.87;25.10;;;8.90;99.90;;;;;;5029479;28;20465;-73
2024/03/05 03:03:56;;;;;;;47.50;24.10;;;8.90;99.90;;;;;;5026947;28;21038;-73
2024/03/05 03:06:43;;;;;;;46.27;24.53;;;8.90;99.90;;;;;;5027172;28;20453;-73
2024/03/05 03:09:28;;;;;;;47.60;24.10;;;8.90;99.90;;;;;;5031096;28;20636;-74
2024/03/05 03:12:16;;;;;;;47.13;22.20;;;8.90;99.90;;;;;;5027788;28;21071;-74
2024/03/05 03:15:01;;;;;;;40.87;22.87;;;8.90;99.90;;;;;;5027339;28;20832;-74
2024/03/05 03:17:48;;;;;;;45.73;23.20;;;8.90;99.90;;;;;;5026779;28;20483;-74
2024/03/05 03:20:34;;;;;;;48.93;22.40;;;8.80;99.90;;;;;;5028030;28;20443;-73
2024/03/05 03:23:19;;;;;;;41.63;22.53;;;8.80;99.90;;;;;;5025211;28;20533;-73
2024/03/05 03:26:06;;;;;;;54.93;24.10;;;8.80;99.90;;;;;;5026284;28;20442;-73
2024/03/05 03:28:54;;;;;;;53.90;25.77;;;8.70;99.90;;;;;;5038521;28;20492;-74
2024/03/05 03:31:40;;;;;;;47.47;24.20;;;8.60;99.90;;;;;;5030204;28;20448;-73
2024/03/05 03:34:26;;;;;;;40.40;21.17;;;8.60;99.90;;;;;;5035421;28;20421;-74
2024/03/05 03:37:12;;;;;;;45.70;22.20;;;8.60;99.90;;;;;;5037036;28;20526;-73
2024/03/05 03:39:59;;;;;;;45.40;22.10;;;8.80;99.90;;;;;;5034559;28;20507;-73
2024/03/05 03:42:45;;;;;;;54.80;24.50;;;8.80;99.90;;;;;;5030109;28;20460;-73
2024/03/05 03:45:32;;;;;;;48.40;22.37;;;8.80;99.90;;;;;;5031750;28;20580;-73
2024/03/05 03:48:18;;;;;;;46.70;22.80;;;8.70;99.90;;;;;;5031182;28;20454;-74
2024/03/05 03:51:04;;;;;;;43.63;22.77;;;8.80;99.90;;;;;;5034513;28;20841;-73
2024/03/05 03:53:49;;;;;;;46.10;23.30;;;8.80;99.90;;;;;;5030788;28;20544;-73
2024/03/05 03:56:36;;;;;;;50.17;27.37;;;8.90;99.90;;;;;;5032025;28;20449;-73
2024/03/05 03:59:22;;;;;;;60.47;24.00;;;8.80;99.90;;;;;;5031281;28;20836;-73
2024/03/05 04:02:09;;;;;;;51.10;26.27;;;8.80;99.90;;;;;;5028571;28;21200;-74
2024/03/05 04:04:55;;;;;;;51.30;25.07;;;8.80;99.90;;;;;;5029777;28;20478;-73
2024/03/05 04:07:40;;;;;;;61.83;25.73;;;8.80;99.90;;;;;;5033705;28;20947;-73
2024/03/05 04:10:26;;;;;;;54.57;24.70;;;8.80;99.90;;;;;;5034724;28;20462;-73
2024/03/05 04:13:12;;;;;;;47.57;23.93;;;8.90;99.90;;;;;;5030300;28;20482;-73
2024/03/05 04:15:59;;;;;;;50.57;24.07;;;8.80;99.90;;;;;;5032079;28;20486;-73
2024/03/05 04:18:46;;;;;;;50.53;24.17;;;8.80;99.90;;;;;;5032309;28;20430;-73
2024/03/05 04:21:31;;;;;;;45.83;21.07;;;8.90;99.90;;;;;;5035649;28;20548;-73
2024/03/05 04:24:17;;;;;;;46.93;24.73;;;8.90;99.90;;;;;;5033843;28;20454;-73
2024/03/05 04:27:03;;;;;;;45.00;23.13;;;8.80;99.90;;;;;;5034317;28;20447;-73
2024/03/05 04:29:53;;;;;;;49.77;24.10;;;8.70;99.90;;;;;;5037141;28;20450;-73
2024/03/05 04:32:45;;;;;;;46.47;21.50;;;8.80;99.90;;;;;;5032825;28;20478;-73
2024/03/05 04:35:32;;;;;;;46.60;24.90;;;8.70;99.90;;;;;;5035100;28;20427;-73
2024/03/05 04:38:17;;;;;;;55.50;26.37;;;8.80;99.90;;;;;;5025049;28;20455;-73
2024/03/05 04:41:04;;;;;;;60.80;25.93;;;8.70;99.90;;;;;;5030862;28;20471;-73
2024/03/05 04:43:50;;;;;;;48.93;24.70;;;8.80;99.90;;;;;;5030078;28;20446;-73
2024/03/05 04:46:35;;;;;;;57.70;25.70;;;8.70;99.90;;;;;;5034167;28;20451;-73
2024/03/05 04:49:21;;;;;;;45.03;22.83;;;8.70;99.90;;;;;;5036358;28;20459;-73
2024/03/05 04:52:09;;;;;;;59.17;25.40;;;8.70;99.90;;;;;;5032565;28;20445;-73
2024/03/05 04:54:55;;;;;;;53.30;23.47;;;8.70;99.90;;;;;;5036584;28;20523;-73
2024/03/05 04:57:41;;;;;;;48.23;24.00;;;8.70;99.90;;;;;;5023127;28;20959;-73
2024/03/05 05:00:27;;;;;;;46.20;24.60;;;8.80;99.90;;;;;;5026012;28;20463;-73
2024/03/05 05:03:13;;;;;;;43.70;23.10;;;8.80;99.90;;;;;;5021610;28;21064;-73
2024/03/05 05:05:58;;;;;;;50.30;22.93;;;8.80;99.90;;;;;;5031364;28;20584;-73
2024/03/05 05:08:46;;;;;;;48.27;23.53;;;8.80;99.90;;;;;;5031620;28;20431;-73
2024/03/05 05:11:32;;;;;;;49.67;25.13;;;8.80;99.90;;;;;;5026060;28;20476;-73
2024/03/05 05:14:18;;;;;;;48.33;23.30;;;8.70;99.90;;;;;;5028181;28;20482;-73
2024/03/05 05:17:04;;;;;;;46.33;23.33;;;8.70;99.90;;;;;;5033312;28;20942;-73
2024/03/05 05:19:49;;;;;;;54.10;25.27;;;8.70;99.90;;;;;;5034174;28;20473;-73
2024/03/05 05:22:37;;;;;;;48.30;24.43;;;8.80;99.90;;;;;;5031199;28;20437;-73
2024/03/05 05:25:24;;;;;;;54.47;24.70;;;8.80;99.90;;;;;;5032908;28;20462;-73
2024/03/05 05:28:11;;;;;;;47.20;22.50;;;8.80;99.90;;;;;;5025574;28;20923;-73
2024/03/05 05:30:56;;;;;;;45.30;23.47;;;8.90;99.90;;;;;;5029998;28;21002;-73
2024/03/05 05:33:42;;;;;;;54.87;24.60;;;8.80;99.90;;;;;;5025120;28;20469;-73
2024/03/05 05:36:28;;;;;;;46.43;24.50;;;8.90;99.90;;;;;;5025301;28;21103;-73
2024/03/05 05:39:14;;;;;;;52.07;24.93;;;8.90;99.90;;;;;;5035934;28;20511;-73
2024/03/05 05:42:01;;;;;;;57.13;26.27;;;8.90;99.90;;;;;;5029958;28;20422;-73
2024/03/05 05:44:47;;;;;;;64.33;27.50;;;8.90;99.90;;;;;;5030599;28;20579;-73
2024/03/05 05:47:33;;;;;;;52.07;24.53;;;8.90;99.90;;;;;;5029574;28;20445;-73
2024/03/05 05:50:21;;;;;;;59.60;26.67;;;8.90;99.90;;;;;;5028341;28;21223;-73
2024/03/05 05:53:08;;;;;;;54.73;27.63;;;9.00;99.90;;;;;;5028469;28;20483;-73
2024/03/05 05:55:54;;;;;;;55.83;26.00;;;8.90;99.90;;;;;;5033967;28;20451;-73
2024/03/05 05:58:41;;;;;;;57.97;28.17;;;9.00;99.90;;;;;;5030363;28;20450;-73
2024/03/05 06:01:27;;;;;;;60.50;27.20;;;9.00;99.90;;;;;;5028957;28;20446;-73
2024/03/05 06:04:15;;;;;;;53.40;26.97;;;9.00;99.90;;;;;;5032417;28;20824;-73
2024/03/05 06:07:00;;;;;;;59.30;27.80;;;9.00;99.90;;;;;;5031338;28;20443;-73
2024/03/05 06:09:46;;;;;;;54.57;27.23;;;9.10;99.90;;;;;;5030033;28;20612;-73
2024/03/05 06:12:32;;;;;;;61.90;29.73;;;9.10;99.90;;;;;;5031212;28;20459;-73
2024/03/05 06:15:19;;;;;;;56.60;27.13;;;9.10;99.90;;;;;;5025527;28;20451;-73
2024/03/05 06:18:05;;;;;;;54.03;26.77;;;9.10;99.90;;;;;;5026774;28;20451;-73
2024/03/05 06:20:51;;;;;;;54.80;26.40;;;9.10;99.90;;;;;;5029529;28;21121;-73
2024/03/05 06:23:37;;;;;;;67.27;29.13;;;9.10;99.90;;;;;;5029392;28;20470;-73
2024/03/05 06:26:24;;;;;;;60.50;31.30;;;9.10;99.90;;;;;;5027676;28;20463;-73
2024/03/05 06:29:09;;;;;;;69.57;36.20;;;9.10;99.90;;;;;;5029104;28;20459;-73
2024/03/05 06:31:56;;;;;;;67.97;32.70;;;9.10;99.90;;;;;;5025996;28;20471;-73
2024/03/05 06:34:42;;;;;;;59.60;28.40;;;9.10;99.90;;;;;;5024199;28;20980;-73
2024/03/05 06:37:28;;;;;;;57.50;27.90;;;9.20;99.90;;;;;;5022674;28;20446;-73
2024/03/05 06:40:16;;;;;;;62.07;29.17;;;9.20;99.90;;;;;;5031158;28;20991;-73
2024/03/05 06:43:05;;;;;;;67.27;31.17;;;9.10;99.90;;;;;;5024639;28;20459;-73
2024/03/05 06:45:50;;;;;;;61.57;29.80;;;9.10;99.90;;;;;;5027807;28;21020;-73
2024/03/05 06:48:38;;;;;;;66.13;30.17;;;9.10;99.90;;;;;;5026792;28;20460;-73
2024/03/05 06:51:31;;;;;;;62.30;29.20;;;9.10;99.90;;;;;;5029617;28;20458;-73
2024/03/05 06:57:20;;;;;;;57.37;26.60;;;9.10;99.90;;;;;;5022171;28;20442;-73
2024/03/05 07:00:15;;;;;;;56.50;28.53;;;9.10;99.90;;;;;;5027312;28;21047;-73
2024/03/05 07:03:00;;;;;;;57.17;28.37;;;9.10;99.90;;;;;;5027331;28;20457;-73
2024/03/05 07:05:47;;;;;;;67.90;32.90;;;9.10;99.90;;;;;;5023579;28;20451;-73
2024/03/05 07:08:33;;;;;;;75.80;33.17;;;9.20;99.90;;;;;;5027009;28;20468;-71
2024/03/05 07:11:18;;;;;;;74.47;33.33;;;9.20;99.90;;;;;;5028097;28;20517;-73
2024/03/05 07:14:04;;;;;;;72.60;33.60;;;9.20;99.90;;;;;;5030906;28;21089;-73
2024/03/05 07:16:50;;;;;;;62.17;30.67;;;9.30;99.90;;;;;;5023494;28;20587;-73
2024/03/05 07:19:36;;;;;;;66.67;31.60;;;9.30;99.90;;;;;;5025492;28;20485;-73
2024/03/05 07:22:23;;;;;;;63.97;29.80;;;9.20;99.90;;;;;;5024954;28;20450;-72
2024/03/05 07:25:10;;;;;;;69.33;30.57;;;9.30;99.90;;;;;;5025724;28;20986;-72
2024/03/05 07:27:56;;;;;;;64.23;30.57;;;9.40;99.90;;;;;;5027915;28;20513;-73
2024/03/05 07:30:42;;;;;;;67.93;31.20;;;9.40;99.90;;;;;;5027677;28;20557;-72
2024/03/05 07:33:28;;;;;;;56.23;28.93;;;9.40;99.90;;;;;;5028074;28;20974;-72
2024/03/05 07:36:13;;;;;;;57.87;26.83;;;9.40;99.90;;;;;;5025628;28;21006;-73
2024/03/05 07:39:01;;;;;;;52.60;26.60;;;9.50;99.90;;;;;;5029204;28;20446;-73
2024/03/05 07:41:46;;;;;;;62.50;26.70;;;9.50;99.90;;;;;;5027674;28;20798;-73
2024/03/05 07:44:34;;;;;;;57.63;26.87;;;9.50;99.90;;;;;;5026729;28;20510;-73
2024/03/05 07:47:20;;;;;;;57.20;26.90;;;9.60;99.90;;;;;;5028004;28;20825;-74
2024/03/05 07:50:07;;;;;;;58.80;27.50;;;9.60;99.90;;;;;;5025794;28;20832;-73
2024/03/05 07:52:53;;;;;;;58.20;27.00;;;9.60;99.90;;;;;;5026054;28;20541;-72
2024/03/05 07:55:41;;;;;;;50.83;26.07;;;9.60;99.90;;;;;;5027747;28;20443;-73
2024/03/05 07:58:26;;;;;;;65.20;29.63;;;9.60;99.90;;;;;;5025879;28;20522;-73
2024/03/05 08:01:12;;;;;;;53.90;26.17;;;9.60;99.90;;;;;;5025758;28;21080;-73
2024/03/05 08:03:58;;;;;;;63.20;27.90;;;9.70;99.90;;;;;;5028755;28;20430;-73
2024/03/05 08:06:44;;;;;;;49.87;24.43;;;9.70;99.90;;;;;;5021856;28;20879;-73
2024/03/05 08:09:30;;;;;;;56.53;28.20;;;9.70;99.90;;;;;;5023971;28;20483;-73
2024/03/05 08:12:18;;;;;;;59.47;28.37;;;9.80;99.90;;;;;;5029364;28;22094;-73
2024/03/05 08:15:04;;;;;;;56.70;26.57;;;9.80;99.90;;;;;;5033336;28;20499;-72
2024/03/05 08:17:50;;;;;;;57.23;27.27;;;9.80;99.90;;;;;;5031257;28;20472;-72
2024/03/05 08:20:36;;;;;;;62.70;30.33;;;9.80;99.90;;;;;;5029534;28;20528;-73
2024/03/05 08:23:22;;;;;;;76.53;36.20;;;9.80;99.90;;;;;;5027160;28;20443;-73
2024/03/05 08:26:08;;;;;;;69.07;33.40;;;9.80;99.90;;;;;;5025022;28;20451;-73
2024/03/05 08:28:55;;;;;;;55.27;28.37;;;9.80;99.90;;;;;;5031293;28;20477;-74
2024/03/05 08:31:40;;;;;;;53.40;27.47;;;9.80;99.90;;;;;;5036147;28;20462;-74
2024/03/05 08:34:26;;;;;;;56.57;29.27;;;9.80;99.90;;;;;;5033455;28;20472;-74
2024/03/05 08:37:15;;;;;;;56.67;28.67;;;9.70;99.90;;;;;;5035291;28;20909;-73
2024/03/05 08:40:00;;;;;;;50.83;26.13;;;9.70;99.90;;;;;;5028644;28;21075;-74
2024/03/05 08:42:47;;;;;;;57.10;29.10;;;9.70;99.90;;;;;;5028838;28;20450;-73
2024/03/05 08:45:36;;;;;;;56.27;29.27;;;9.70;99.90;;;;;;5032785;28;20440;-74
2024/03/05 08:48:21;;;;;;;58.73;30.27;;;9.70;99.90;;;;;;5030230;28;20817;-73
2024/03/05 08:51:08;;;;;;;52.90;28.57;;;9.70;99.90;;;;;;5034674;28;20455;-74
2024/03/05 08:53:55;;;;;;;51.17;30.27;;;9.70;99.90;;;;;;5031896;28;20473;-74
2024/03/05 08:56:40;;;;;;;63.77;30.20;;;9.70;99.90;;;;;;5021584;28;20458;-74
2024/03/05 08:59:26;;;;;;;57.53;31.20;;;9.70;99.90;;;;;;5028517;28;20502;-73
2024/03/05 09:02:13;;;;;;;55.53;30.10;;;9.60;99.90;;;;;;5028772;28;20439;-74
2024/03/05 09:04:58;;;;;;;58.37;31.70;;;9.60;99.90;;;;;;5030798;28;20948;-74
2024/03/05 09:07:44;;;;;;;67.13;35.30;;;9.50;99.90;;;;;;5035930;28;20430;-74
2024/03/05 09:10:30;;;;;;;61.73;34.40;;;9.60;99.90;;;;;;5029880;28;20998;-74
2024/03/05 09:13:16;;;;;;;63.07;34.20;;;9.50;99.90;;;;;;5030964;28;20439;-74
2024/03/05 09:16:01;;;;;;;62.90;34.50;;;9.40;99.90;;;;;;5029935;28;20462;-74
2024/03/05 09:18:48;;;;;;;60.60;33.67;;;9.50;99.90;;;;;;5030361;28;20954;-74
2024/03/05 09:21:35;;;;;;;61.53;32.77;;;9.40;99.90;;;;;;5030041;28;20450;-74
2024/03/05 09:24:21;;;;;;;64.40;35.20;;;9.40;99.90;;;;;;5031233;28;20435;-74
2024/03/05 09:27:06;;;;;;;64.40;34.43;;;9.40;99.90;;;;;;5032326;28;20473;-74
2024/03/05 09:29:55;;;;;;;64.13;34.07;;;9.40;99.90;;;;;;5030049;28;20502;-73
2024/03/05 09:32:41;;;;;;;72.20;35.17;;;9.30;99.90;;;;;;5030413;28;20478;-73
2024/03/05 09:35:29;;;;;;;64.33;35.00;;;9.40;99.90;;;;;;5029087;28;20571;-73
2024/03/05 09:38:16;;;;;;;63.20;34.20;;;9.30;99.90;;;;;;5031703;28;20431;-73
2024/03/05 09:41:04;;;;;;;64.00;32.43;;;9.30;99.90;;;;;;5030327;28;20482;-73
2024/03/05 09:43:51;;;;;;;61.83;34.10;;;9.30;99.90;;;;;;5032292;28;20452;-73
2024/03/05 09:46:38;;;;;;;66.87;32.43;;;9.30;99.90;;;;;;5033936;28;20439;-73
2024/03/05 09:49:24;;;;;;;55.07;31.53;;;9.30;99.90;;;;;;5030111;28;20552;-73
2024/03/05 09:52:12;;;;;;;54.50;30.97;;;9.30;99.90;;;;;;5028473;28;20593;-73
2024/03/05 09:54:59;;;;;;;55.03;31.63;;;9.30;99.90;;;;;;5028900;28;20475;-73
2024/03/05 09:57:48;;;;;;;57.97;31.13;;;9.30;99.90;;;;;;5027447;28;20949;-73
2024/03/05 10:00:37;;;;;;;56.73;32.67;;;9.20;99.90;;;;;;5026261;28;20490;-73
2024/03/05 10:03:22;;;;;;;50.17;32.17;;;9.20;99.90;;;;;;5034726;28;20815;-73
2024/03/05 10:06:11;;;;;;;65.30;32.03;;;9.20;99.90;;;;;;5032755;28;20434;-73
2024/03/05 10:08:58;;;;;;;58.40;31.97;;;9.20;99.90;;;;;;5031815;28;20430;-73
2024/03/05 10:11:45;;;;;;;60.40;33.50;;;9.20;99.90;;;;;;5035844;28;20409;-73
2024/03/05 10:14:31;;;;;;;62.37;33.37;;;9.20;99.90;;;;;;5030239;28;20480;-73
2024/03/05 10:17:16;;;;;;;63.07;34.30;;;9.20;99.90;;;;;;5027408;28;20561;-73
2024/03/05 10:20:02;;;;;;;54.07;31.20;;;9.20;99.90;;;;;;5031131;28;20462;-73
2024/03/05 10:22:52;;;;;;;54.83;29.43;;;9.30;99.90;;;;;;5031378;28;20826;-73
2024/03/05 10:25:39;;;;;;;54.50;31.70;;;9.30;99.90;;;;;;5029935;28;20444;-73
2024/03/05 10:28:30;;;;;;;44.37;29.20;;;9.40;99.90;;;;;;5027908;28;20434;-73
2024/03/05 10:31:21;;;;;;;45.60;28.73;;;9.30;99.90;;;;;;5032084;28;20467;-73
2024/03/05 10:34:07;;;;;;;48.90;29.70;;;9.40;99.90;;;;;;5032948;28;20529;-73
2024/03/05 10:36:53;;;;;;;51.97;29.93;;;9.40;99.90;;;;;;5030706;28;20436;-73
2024/03/05 10:39:41;;;;;;;47.13;27.30;;;9.30;99.90;;;;;;5030218;28;22000;-73
2024/03/05 10:42:28;;;;;;;51.13;29.20;;;9.40;99.90;;;;;;5032945;28;20487;-73
2024/03/05 10:45:15;;;;;;;50.00;29.53;;;9.30;99.90;;;;;;5032956;28;20437;-74
2024/03/05 10:48:01;;;;;;;47.37;26.20;;;9.40;99.90;;;;;;5035313;28;20461;-73
2024/03/05 10:50:48;;;;;;;44.60;26.77;;;9.40;99.90;;;;;;5031162;28;20454;-73
2024/03/05 10:53:34;;;;;;;44.20;26.87;;;9.40;99.90;;;;;;5031545;28;20442;-73
2024/03/05 10:56:21;;;;;;;40.30;25.27;;;9.30;99.90;;;;;;5029754;28;20431;-74
2024/03/05 10:59:32;;;;;;;44.40;26.20;;;9.30;99.90;;;;;;5030187;28;20460;-73
2024/03/05 11:02:19;;;;;;;42.87;25.87;;;9.40;99.90;;;;;;5034177;28;20442;-73
2024/03/05 11:05:07;;;;;;;41.07;24.27;;;9.40;99.90;;;;;;5029508;28;20442;-73
2024/03/05 11:07:54;;;;;;;38.00;24.60;;;9.40;99.90;;;;;;5029973;28;20517;-73
2024/03/05 11:10:42;;;;;;;35.50;22.53;;;9.50;99.90;;;;;;5033844;28;20609;-73
2024/03/05 11:13:29;;;;;;;37.30;23.70;;;9.60;99.90;;;;;;5031302;28;20971;-73
2024/03/05 11:16:17;;;;;;;37.97;24.17;;;9.60;99.90;;;;;;5029034;28;20431;-73
2024/03/05 11:19:05;;;;;;;34.20;23.40;;;9.70;99.90;;;;;;5029935;28;21171;-73
2024/03/05 11:21:50;;;;;;;38.13;23.47;;;9.70;99.90;;;;;;5028913;28;20530;-73
2024/03/05 11:24:36;;;;;;;39.47;24.00;;;9.60;99.90;;;;;;5030313;28;20764;-73
2024/03/05 11:27:24;;;;;;;34.77;23.53;;;9.70;99.90;;;;;;5029555;28;20554;-73
2024/03/05 11:30:12;;;;;;;37.40;23.80;;;9.70;99.90;;;;;;5028661;28;20459;-73
2024/03/05 11:33:09;;;;;;;45.90;26.00;;;9.70;99.90;;;;;;5031058;28;20853;-73
2024/03/05 11:35:55;;;;;;;40.90;24.37;;;9.60;99.90;;;;;;5031876;28;20504;-73
2024/03/05 11:38:56;;;;;;;38.70;25.80;;;9.60;99.90;;;;;;5033531;28;20764;-73
2024/03/05 11:41:43;;;;;;;42.73;26.07;;;9.60;99.90;;;;;;5031989;28;20432;-73
2024/03/05 11:44:53;;;;;;;39.10;26.00;;;9.50;99.90;;;;;;5029483;28;20428;-73
2024/03/05 11:47:43;;;;;;;41.97;25.60;;;9.50;99.90;;;;;;5032603;28;20448;-73
2024/03/05 11:50:30;;;;;;;40.50;25.43;;;9.50;99.90;;;;;;5034013;28;20499;-74
2024/03/05 11:53:16;;;;;;;41.77;25.70;;;9.50;99.90;;;;;;5032488;28;20810;-74
2024/03/05 11:56:08;;;;;;;36.03;24.67;;;9.50;99.90;;;;;;5035124;28;20488;-73
2024/03/05 11:58:54;;;;;;;32.57;24.47;;;9.50;99.90;;;;;;5035144;28;20823;-73
2024/03/05 12:01:42;;;;;;;41.60;26.50;;;9.50;99.90;;;;;;5032570;28;20432;-73
2024/03/05 12:04:28;;;;;;;42.23;26.27;;;9.50;99.90;;;;;;5032704;28;20830;-73
2024/03/05 12:07:15;;;;;;;33.40;23.20;;;9.50;99.90;;;;;;5035674;28;20424;-73
2024/03/05 12:10:01;;;;;;;40.80;25.57;;;9.50;99.90;;;;;;5035441;28;20455;-73
2024/03/05 12:12:51;;;;;;;41.17;24.37;;;9.50;99.90;;;;;;5033587;28;20474;-73
2024/03/05 12:15:39;;;;;;;39.90;24.67;;;9.40;99.90;;;;;;5035611;28;20505;-73
2024/03/05 12:18:25;;;;;;;35.40;25.77;;;9.30;99.90;;;;;;5036586;28;20442;-73
2024/03/05 12:21:11;;;;;;;34.80;24.77;;;9.40;99.90;;;;;;5032236;28;20551;-73
2024/03/05 12:23:59;;;;;;;36.77;24.80;;;9.40;99.90;;;;;;5037080;28;20436;-73
2024/03/05 12:26:45;;;;;;;36.67;23.50;;;9.40;99.90;;;;;;5036077;28;20401;-73
2024/03/05 12:29:35;;;;;;;36.80;24.47;;;9.50;99.90;;;;;;5031352;28;21008;-73
2024/03/05 12:32:21;;;;;;;37.37;25.40;;;9.40;99.90;;;;;;5031782;28;21073;-73
2024/03/05 12:35:07;;;;;;;41.80;25.07;;;9.50;99.90;;;;;;5033744;28;20475;-73
2024/03/05 12:37:53;;;;;;;38.77;23.63;;;9.50;99.90;;;;;;5034869;28;20443;-73
2024/03/05 12:40:41;;;;;;;36.80;23.17;;;9.50;99.90;;;;;;5032719;28;20512;-73
2024/03/05 12:43:28;;;;;;;32.87;23.20;;;9.60;99.90;;;;;;5032760;28;20954;-73
2024/03/05 12:46:19;;;;;;;37.47;23.90;;;9.50;99.90;;;;;;5029913;28;20793;-73
2024/03/05 12:49:09;;;;;;;34.73;23.20;;;9.50;99.90;;;;;;5029476;28;20914;-73
2024/03/05 12:51:54;;;;;;;32.13;20.90;;;9.50;99.90;;;;;;5031352;28;20429;-73
2024/03/05 12:54:41;;;;;;;38.23;21.87;;;9.60;99.90;;;;;;5024949;28;20475;-73
2024/03/05 12:57:30;;;;;;;41.63;22.70;;;9.50;99.90;;;;;;5027535;28;20455;-73
2024/03/05 13:00:16;;;;;;;28.10;19.40;;;9.60;99.90;;;;;;5025914;28;20443;-73
2024/03/05 13:03:04;;;;;;;34.53;21.40;;;9.60;99.90;;;;;;5031307;28;20440;-74
2024/03/05 13:05:50;;;;;;;34.43;22.83;;;9.60;99.90;;;;;;5031126;28;20450;-74
2024/03/05 13:08:35;;;;;;;33.23;23.03;;;9.70;99.90;;;;;;5027140;28;20452;-74
2024/03/05 13:11:21;;;;;;;39.03;23.30;;;9.80;99.90;;;;;;5027566;28;20479;-74
2024/03/05 13:14:12;;;;;;;34.57;22.77;;;9.90;99.90;;;;;;5021771;28;20825;-74
2024/03/05 13:16:58;;;;;;;33.90;22.57;;;9.90;99.90;;;;;;5028438;28;20446;-74
2024/03/05 13:19:44;;;;;;;34.53;21.90;;;9.90;99.90;;;;;;5025191;28;20526;-74
2024/03/05 13:22:30;;;;;;;38.00;23.20;;;10.00;99.90;;;;;;5029904;28;20470;-74
2024/03/05 13:25:16;;;;;;;34.43;20.63;;;10.00;99.90;;;;;;5022158;28;20451;-74
2024/03/05 13:28:03;;;;;;;29.70;21.10;;;10.00;99.90;;;;;;5023137;28;20539;-73
2024/03/05 13:30:51;;;;;;;27.20;20.63;;;10.00;99.90;;;;;;5021905;28;20530;-73
2024/03/05 13:33:37;;;;;;;34.40;22.10;;;10.00;99.90;;;;;;5021364;28;20989;-74
2024/03/05 13:36:23;;;;;;;31.10;19.77;;;10.00;99.90;;;;;;5021082;28;20511;-74
2024/03/05 13:39:10;;;;;;;30.33;20.67;;;10.00;99.90;;;;;;5025710;28;20453;-73
2024/03/05 13:41:56;;;;;;;27.83;19.63;;;9.90;99.90;;;;;;5028410;28;20528;-73
2024/03/05 13:44:42;;;;;;;30.60;19.40;;;9.90;99.90;;;;;;5025062;28;20541;-73
2024/03/05 13:47:29;;;;;;;28.80;19.03;;;9.90;99.90;;;;;;5021659;28;20574;-73
2024/03/05 13:50:17;;;;;;;26.67;18.93;;;10.00;99.90;;;;;;5026436;28;20617;-74
2024/03/05 13:53:03;;;;;;;22.13;17.03;;;9.90;99.90;;;;;;5031685;28;20541;-73
2024/03/05 13:55:54;;;;;;;21.10;15.27;;;10.00;99.90;;;;;;5023433;28;20483;-74
2024/03/05 13:58:41;;;;;;;23.20;16.87;;;10.00;99.90;;;;;;5028224;28;20459;-74
2024/03/05 14:01:27;;;;;;;20.63;15.50;;;10.00;99.90;;;;;;5029082;28;20522;-74
2024/03/05 14:04:15;;;;;;;22.57;16.30;;;10.10;99.90;;;;;;5026013;28;21205;-74
2024/03/05 14:07:03;;;;;;;20.23;14.57;;;10.20;99.90;;;;;;5022327;28;20442;-73
2024/03/05 14:09:49;;;;;;;21.50;15.30;;;10.20;99.90;;;;;;5019764;28;20585;-74
2024/03/05 14:12:35;;;;;;;20.00;14.27;;;10.30;99.90;;;;;;5025209;28;20459;-74
2024/03/05 14:15:21;;;;;;;20.47;13.40;;;10.30;99.90;;;;;;5023754;28;20479;-74
2024/03/05 14:18:08;;;;;;;18.00;12.70;;;10.30;99.90;;;;;;5024507;28;20559;-74